Time;durP1;ratioP1;P1;durP2;ratioP2;P2;SDS_P1;SDS_P2;PMS_P1;PMS_P2;Temp;Humidity;BMP_temperature;BMP_pressure;BME280_temperature;BME280_humidity;BME280_pressure;Samples;Min_cycle;Max_cycle;Signal;HPM_P1;HPM_P2
2024/03/26 00:00:49;;;;;;;;;15.33;14.00;;;;;;;;5090465;27;45568;-54
2024/03/26 00:03:14;;;;;;;;;18.00;15.00;;;;;;;;5093473;27;45425;-55
2024/03/26 00:05:39;;;;;;;;;18.67;16.00;;;;;;;;5096296;27;45429;-55
2024/03/26 00:08:05;;;;;;;;;14.00;13.33;;;;;;;;5090619;27;46428;-55
2024/03/26 00:10:30;;;;;;;;;15.33;13.00;;;;;;;;5090870;27;45571;-55
2024/03/26 00:12:55;;;;;;;;;20.00;18.00;;;;;;;;5098597;27;45566;-55
2024/03/26 00:15:20;;;;;;;;;43.33;31.00;;;;;;;;5098799;27;45392;-56
2024/03/26 00:17:45;;;;;;;;;18.67;18.67;;;;;;;;5099192;27;45473;-56
2024/03/26 00:20:11;;;;;;;;;25.00;21.00;;;;;;;;5099025;27;45394;-56
2024/03/26 00:22:36;;;;;;;;;16.00;14.67;;;;;;;;5099075;27;46541;-55
2024/03/26 00:25:01;;;;;;;;;18.00;13.33;;;;;;;;5099135;27;45299;-56
2024/03/26 00:27:26;;;;;;;;;16.67;14.00;;;;;;;;5098990;27;45560;-56
2024/03/26 00:29:52;;;;;;;;;17.00;13.67;;;;;;;;5099075;27;45435;-56
2024/03/26 00:32:17;;;;;;;;;14.33;13.33;;;;;;;;5093807;27;46197;-56
2024/03/26 00:34:42;;;;;;;;;19.33;16.00;;;;;;;;5097364;27;45486;-56
2024/03/26 00:37:07;;;;;;;;;14.00;12.00;;;;;;;;5099656;27;45362;-55
2024/03/26 00:39:32;;;;;;;;;14.67;13.00;;;;;;;;5101098;27;45506;-56
2024/03/26 00:41:58;;;;;;;;;17.33;14.00;;;;;;;;5098342;27;46182;-56
2024/03/26 00:44:23;;;;;;;;;15.00;14.00;;;;;;;;5100592;27;45280;-56
2024/03/26 00:46:48;;;;;;;;;14.00;12.67;;;;;;;;5102645;27;45290;-56
2024/03/26 00:49:13;;;;;;;;;13.33;13.33;;;;;;;;5102203;27;45453;-56
2024/03/26 00:51:44;;;;;;;;;16.00;12.33;;;;;;;;5102394;27;46250;-56
2024/03/26 00:54:09;;;;;;;;;11.67;11.00;;;;;;;;5102042;27;45371;-56
2024/03/26 00:56:34;;;;;;;;;12.33;11.67;;;;;;;;5102310;27;45221;-56
2024/03/26 00:58:59;;;;;;;;;10.67;7.67;;;;;;;;5099436;27;45318;-56
2024/03/26 01:01:24;;;;;;;;;10.00;8.33;;;;;;;;5101382;27;46559;-56
2024/03/26 01:03:51;;;;;;;;;7.67;6.67;;;;;;;;5102511;27;45359;-56
2024/03/26 01:06:16;;;;;;;;;8.33;7.00;;;;;;;;5101762;27;45597;-57
2024/03/26 01:08:41;;;;;;;;;7.33;6.33;;;;;;;;5101488;27;45444;-56
2024/03/26 01:11:06;;;;;;;;;7.33;7.00;;;;;;;;5100714;27;45680;-56
2024/03/26 01:13:32;;;;;;;;;8.00;7.00;;;;;;;;5102024;27;45359;-56
2024/03/26 01:15:57;;;;;;;;;8.00;8.00;;;;;;;;5101706;27;45386;-56
2024/03/26 01:18:22;;;;;;;;;11.67;9.00;;;;;;;;5101370;27;45530;-57
2024/03/26 01:20:47;;;;;;;;;8.33;7.33;;;;;;;;5101571;27;45485;-56
2024/03/26 01:23:12;;;;;;;;;3.67;3.67;;;;;;;;5101300;27;45359;-56
2024/03/26 01:25:38;;;;;;;;;4.67;4.67;;;;;;;;5101525;27;45346;-56
2024/03/26 01:28:03;;;;;;;;;7.00;6.00;;;;;;;;5101529;27;45532;-56
2024/03/26 01:30:28;;;;;;;;;8.33;4.33;;;;;;;;5099753;27;45626;-56
2024/03/26 01:32:53;;;;;;;;;5.67;4.67;;;;;;;;5100608;27;45594;-56
2024/03/26 01:35:19;;;;;;;;;8.33;6.00;;;;;;;;5101264;27;45279;-57
2024/03/26 01:37:44;;;;;;;;;4.33;4.33;;;;;;;;5101838;27;45310;-55
2024/03/26 01:40:11;;;;;;;;;5.00;5.00;;;;;;;;5101186;27;46580;-56
2024/03/26 01:42:36;;;;;;;;;7.00;6.00;;;;;;;;5100363;27;45321;-55
2024/03/26 01:45:02;;;;;;;;;5.00;4.00;;;;;;;;5101346;27;45281;-56
2024/03/26 01:47:27;;;;;;;;;5.00;4.67;;;;;;;;5101078;27;45636;-56
2024/03/26 01:49:54;;;;;;;;;6.00;5.33;;;;;;;;5100482;27;45967;-56
2024/03/26 01:52:19;;;;;;;;;10.00;6.33;;;;;;;;5100397;27;45392;-57
2024/03/26 01:54:44;;;;;;;;;7.33;6.00;;;;;;;;5100745;27;45273;-56
2024/03/26 01:57:10;;;;;;;;;8.00;6.33;;;;;;;;5101067;27;45283;-56
2024/03/26 01:59:37;;;;;;;;;6.67;5.00;;;;;;;;5101015;27;45432;-56
2024/03/26 02:02:02;;;;;;;;;6.67;6.67;;;;;;;;5100008;27;45397;-55
2024/03/26 02:04:28;;;;;;;;;7.00;6.33;;;;;;;;5100498;27;45327;-56
2024/03/26 02:06:53;;;;;;;;;4.33;4.33;;;;;;;;5101429;27;45516;-56
2024/03/26 02:09:19;;;;;;;;;9.00;7.00;;;;;;;;5100348;27;45228;-56
2024/03/26 02:11:44;;;;;;;;;7.67;6.00;;;;;;;;5098982;27;45288;-56
2024/03/26 02:14:09;;;;;;;;;4.33;4.33;;;;;;;;5098921;27;45347;-56
2024/03/26 02:16:34;;;;;;;;;5.67;5.00;;;;;;;;5100986;27;45668;-56
2024/03/26 02:18:59;;;;;;;;;9.33;6.00;;;;;;;;5100887;27;45524;-56
2024/03/26 02:21:24;;;;;;;;;4.67;4.67;;;;;;;;5100578;27;45409;-56
2024/03/26 02:23:50;;;;;;;;;8.67;7.00;;;;;;;;5101101;27;45923;-56
2024/03/26 02:26:15;;;;;;;;;8.67;6.33;;;;;;;;5100469;27;45121;-56
2024/03/26 02:28:40;;;;;;;;;5.67;5.67;;;;;;;;5100523;27;45617;-56
2024/03/26 02:31:05;;;;;;;;;8.00;6.33;;;;;;;;5100340;27;45318;-56
2024/03/26 02:33:31;;;;;;;;;6.33;6.33;;;;;;;;5097741;27;45564;-55
2024/03/26 02:35:56;;;;;;;;;6.67;6.00;;;;;;;;5084484;27;45591;-56
2024/03/26 02:38:21;;;;;;;;;9.33;6.67;;;;;;;;5105879;27;45623;-56
2024/03/26 02:40:46;;;;;;;;;9.00;7.00;;;;;;;;5100564;27;45315;-56
2024/03/26 02:43:11;;;;;;;;;5.67;5.00;;;;;;;;5099995;27;45215;-56
2024/03/26 02:45:37;;;;;;;;;7.33;7.33;;;;;;;;5099539;27;45210;-56
2024/03/26 02:48:04;;;;;;;;;8.33;7.67;;;;;;;;5099932;27;45531;-55
2024/03/26 02:50:29;;;;;;;;;7.67;7.67;;;;;;;;5088711;27;45437;-55
2024/03/26 02:52:55;;;;;;;;;11.00;9.67;;;;;;;;5100416;27;45478;-54
2024/03/26 02:55:20;;;;;;;;;6.33;6.33;;;;;;;;5100334;27;45398;-56
2024/03/26 02:57:45;;;;;;;;;6.00;6.00;;;;;;;;5099720;27;45541;-56
2024/03/26 03:00:10;;;;;;;;;7.33;7.00;;;;;;;;5098900;27;45451;-56
2024/03/26 03:02:36;;;;;;;;;8.00;6.33;;;;;;;;5100401;27;45351;-55
2024/03/26 03:05:01;;;;;;;;;7.00;6.00;;;;;;;;5100817;27;45385;-56
2024/03/26 03:07:26;;;;;;;;;11.00;6.67;;;;;;;;5099385;27;46378;-56
2024/03/26 03:09:52;;;;;;;;;8.00;5.33;;;;;;;;5098221;27;45357;-56
2024/03/26 03:12:17;;;;;;;;;5.00;5.00;;;;;;;;5099250;27;45548;-56
2024/03/26 03:14:42;;;;;;;;;7.00;5.33;;;;;;;;5099898;27;45318;-56
2024/03/26 03:17:07;;;;;;;;;5.67;5.67;;;;;;;;5081216;27;48301;-56
2024/03/26 03:19:33;;;;;;;;;8.00;7.00;;;;;;;;5096704;27;45442;-56
2024/03/26 03:21:58;;;;;;;;;7.33;5.00;;;;;;;;5100263;27;45648;-55
2024/03/26 03:24:23;;;;;;;;;8.00;7.00;;;;;;;;5077845;27;45381;-55
2024/03/26 03:26:48;;;;;;;;;9.33;9.00;;;;;;;;5096606;27;45501;-56
2024/03/26 03:29:13;;;;;;;;;10.00;8.00;;;;;;;;5098847;27;45338;-56
2024/03/26 03:31:38;;;;;;;;;6.00;6.00;;;;;;;;5081801;27;45655;-56
2024/03/26 03:34:04;;;;;;;;;7.00;7.00;;;;;;;;5099285;27;45600;-56
2024/03/26 03:36:29;;;;;;;;;9.00;7.33;;;;;;;;5099972;27;45413;-56
2024/03/26 03:38:54;;;;;;;;;9.67;8.00;;;;;;;;5099744;27;45408;-56
2024/03/26 03:41:19;;;;;;;;;9.67;7.33;;;;;;;;5099307;27;45408;-56
2024/03/26 03:43:44;;;;;;;;;10.67;9.33;;;;;;;;5099024;27;45544;-56
2024/03/26 03:46:10;;;;;;;;;7.00;6.67;;;;;;;;5099376;27;46549;-55
2024/03/26 03:48:35;;;;;;;;;5.67;5.67;;;;;;;;5099516;27;45224;-56
2024/03/26 03:51:00;;;;;;;;;12.33;7.33;;;;;;;;5099640;27;45385;-56
2024/03/26 03:53:25;;;;;;;;;10.00;10.00;;;;;;;;5098460;27;45270;-57
2024/03/26 03:55:50;;;;;;;;;10.00;8.00;;;;;;;;5099904;27;46234;-56
2024/03/26 03:58:16;;;;;;;;;8.00;8.00;;;;;;;;5098283;27;45436;-56
2024/03/26 04:00:41;;;;;;;;;8.33;7.67;;;;;;;;5099718;27;45409;-56
2024/03/26 04:03:06;;;;;;;;;11.00;8.00;;;;;;;;5098992;27;45493;-56
2024/03/26 04:05:35;;;;;;;;;6.33;6.33;;;;;;;;5099543;27;45598;-56
2024/03/26 04:08:00;;;;;;;;;9.00;8.00;;;;;;;;5099204;27;45236;-56
2024/03/26 04:10:25;;;;;;;;;7.00;7.00;;;;;;;;5089930;27;45450;-56
2024/03/26 04:12:50;;;;;;;;;8.33;8.33;;;;;;;;5102614;27;45667;-56
2024/03/26 04:15:16;;;;;;;;;9.33;9.00;;;;;;;;5102696;27;45346;-55
2024/03/26 04:17:41;;;;;;;;;10.33;8.00;;;;;;;;5103026;27;45968;-56
2024/03/26 04:20:06;;;;;;;;;6.00;6.00;;;;;;;;5101130;27;45359;-56
2024/03/26 04:22:31;;;;;;;;;8.00;7.00;;;;;;;;5102872;27;45359;-56
2024/03/26 04:24:57;;;;;;;;;9.00;8.00;;;;;;;;5101583;27;45441;-56
2024/03/26 04:27:22;;;;;;;;;7.33;7.33;;;;;;;;5100552;27;45216;-56
2024/03/26 04:29:47;;;;;;;;;8.00;7.33;;;;;;;;5103014;27;45456;-56
2024/03/26 04:32:12;;;;;;;;;10.33;9.33;;;;;;;;5100775;27;45425;-56
2024/03/26 04:34:37;;;;;;;;;8.33;8.33;;;;;;;;5101505;27;45370;-56
2024/03/26 04:37:03;;;;;;;;;9.00;6.00;;;;;;;;5100373;27;45542;-57
2024/03/26 04:39:28;;;;;;;;;6.67;6.67;;;;;;;;5101740;27;45279;-56
2024/03/26 04:41:54;;;;;;;;;9.00;9.00;;;;;;;;5100902;27;45334;-56
2024/03/26 04:44:19;;;;;;;;;11.00;10.00;;;;;;;;5101014;27;46032;-56
2024/03/26 04:46:45;;;;;;;;;12.33;10.33;;;;;;;;5101542;27;45465;-55
2024/03/26 04:49:10;;;;;;;;;9.00;8.33;;;;;;;;5102485;27;45264;-56
2024/03/26 04:51:35;;;;;;;;;8.67;8.67;;;;;;;;5101692;27;45290;-56
2024/03/26 04:54:00;;;;;;;;;6.33;6.00;;;;;;;;5100411;27;46419;-55
2024/03/26 04:56:27;;;;;;;;;9.33;9.00;;;;;;;;5100846;27;45571;-56
2024/03/26 04:58:52;;;;;;;;;10.67;7.67;;;;;;;;5101741;27;45480;-56
2024/03/26 05:01:17;;;;;;;;;9.33;9.33;;;;;;;;5101885;27;45539;-55
2024/03/26 05:03:42;;;;;;;;;10.00;7.67;;;;;;;;5101442;27;45431;-56
2024/03/26 05:06:07;;;;;;;;;10.67;10.33;;;;;;;;5101214;27;45287;-56
2024/03/26 05:08:33;;;;;;;;;8.33;8.33;;;;;;;;5102394;27;45524;-56
2024/03/26 05:10:58;;;;;;;;;8.67;8.33;;;;;;;;5101748;27;45546;-56
2024/03/26 05:13:23;;;;;;;;;9.67;9.67;;;;;;;;5082736;27;46076;-55
2024/03/26 05:15:48;;;;;;;;;10.00;8.33;;;;;;;;5102191;27;45396;-56
2024/03/26 05:18:13;;;;;;;;;13.33;11.00;;;;;;;;5099630;27;45270;-56
2024/03/26 05:20:38;;;;;;;;;7.00;7.00;;;;;;;;5100270;27;45415;-55
2024/03/26 05:23:04;;;;;;;;;9.67;8.00;;;;;;;;5099927;27;46542;-53
2024/03/26 05:25:29;;;;;;;;;13.00;9.00;;;;;;;;5099997;27;45322;-55
2024/03/26 05:27:54;;;;;;;;;11.00;8.33;;;;;;;;5109575;27;45583;-55
2024/03/26 05:30:19;;;;;;;;;8.67;7.33;;;;;;;;5101213;27;45271;-55
2024/03/26 05:32:44;;;;;;;;;9.00;7.67;;;;;;;;5100200;27;45315;-54
2024/03/26 05:35:09;;;;;;;;;8.00;8.00;;;;;;;;5081845;27;45354;-55
2024/03/26 05:37:36;;;;;;;;;10.67;9.33;;;;;;;;5101550;27;45467;-55
2024/03/26 05:40:02;;;;;;;;;10.00;8.00;;;;;;;;5101241;27;45942;-55
2024/03/26 05:42:27;;;;;;;;;9.00;7.00;;;;;;;;5100156;27;45960;-55
2024/03/26 05:44:52;;;;;;;;;12.00;9.67;;;;;;;;5100333;27;45348;-55
2024/03/26 05:47:17;;;;;;;;;8.00;8.00;;;;;;;;5101170;27;45484;-55
2024/03/26 05:49:43;;;;;;;;;7.33;7.33;;;;;;;;5101038;27;45349;-55
2024/03/26 05:52:08;;;;;;;;;7.00;6.00;;;;;;;;5099834;27;46296;-55
2024/03/26 05:54:33;;;;;;;;;9.00;7.00;;;;;;;;5101357;27;45284;-55
2024/03/26 05:56:58;;;;;;;;;7.33;6.00;;;;;;;;5100755;27;45262;-56
2024/03/26 05:59:23;;;;;;;;;7.67;6.33;;;;;;;;5100983;27;45567;-56
2024/03/26 06:01:48;;;;;;;;;9.33;7.33;;;;;;;;5082743;27;46137;-56
2024/03/26 06:04:14;;;;;;;;;10.33;9.33;;;;;;;;5099480;27;45382;-56
2024/03/26 06:06:39;;;;;;;;;9.33;9.00;;;;;;;;5099122;27;45654;-56
2024/03/26 06:09:04;;;;;;;;;9.67;6.33;;;;;;;;5100891;27;45370;-55
2024/03/26 06:11:29;;;;;;;;;7.00;7.00;;;;;;;;5090947;27;46430;-55
2024/03/26 06:13:54;;;;;;;;;7.00;7.00;;;;;;;;5101187;27;45216;-56
2024/03/26 06:16:19;;;;;;;;;7.00;6.33;;;;;;;;5099131;27;45449;-56
2024/03/26 06:18:45;;;;;;;;;9.00;8.33;;;;;;;;5096656;27;45601;-56
2024/03/26 06:21:10;;;;;;;;;6.67;5.33;;;;;;;;5099531;27;45484;-56
2024/03/26 06:23:35;;;;;;;;;9.33;7.00;;;;;;;;5098721;27;45219;-56
2024/03/26 06:26:00;;;;;;;;;7.67;7.33;;;;;;;;5099924;27;45255;-55
2024/03/26 06:28:26;;;;;;;;;9.00;6.33;;;;;;;;5098133;27;45342;-55
2024/03/26 06:30:51;;;;;;;;;9.67;8.00;;;;;;;;5099484;27;45257;-56
2024/03/26 06:33:16;;;;;;;;;11.00;7.00;;;;;;;;5099251;27;45385;-56
2024/03/26 06:35:42;;;;;;;;;9.33;7.00;;;;;;;;5096424;27;45674;-57
2024/03/26 06:38:07;;;;;;;;;9.33;6.33;;;;;;;;5080428;27;45646;-56
2024/03/26 06:40:33;;;;;;;;;7.00;7.00;;;;;;;;5093815;27;45680;-56
2024/03/26 06:42:58;;;;;;;;;7.00;7.00;;;;;;;;5090751;27;45447;-56
2024/03/26 06:45:23;;;;;;;;;8.00;8.00;;;;;;;;5085876;27;45368;-56
2024/03/26 06:47:48;;;;;;;;;7.00;6.00;;;;;;;;5090770;27;45446;-56
2024/03/26 06:50:14;;;;;;;;;6.00;6.00;;;;;;;;5075159;27;47218;-55
2024/03/26 06:52:39;;;;;;;;;6.67;6.67;;;;;;;;5066881;28;45358;-56
2024/03/26 06:55:07;;;;;;;;;8.00;7.00;;;;;;;;5089074;27;45165;-56
2024/03/26 06:57:32;;;;;;;;;7.33;7.00;;;;;;;;5086230;27;45311;-56
2024/03/26 06:59:58;;;;;;;;;13.33;7.00;;;;;;;;5081049;27;47418;-56
2024/03/26 07:02:23;;;;;;;;;9.00;7.00;;;;;;;;5090517;27;45352;-57
2024/03/26 07:04:48;;;;;;;;;7.67;7.00;;;;;;;;5074175;27;45490;-57
2024/03/26 07:07:14;;;;;;;;;11.00;8.00;;;;;;;;5083170;27;45715;-57
2024/03/26 07:09:39;;;;;;;;;9.67;7.67;;;;;;;;5090600;27;45435;-57
2024/03/26 07:12:04;;;;;;;;;10.33;8.67;;;;;;;;5085265;27;45305;-57
2024/03/26 07:14:32;;;;;;;;;9.00;7.67;;;;;;;;5081673;27;45347;-62
2024/03/26 07:16:57;;;;;;;;;7.33;6.33;;;;;;;;5088580;27;45229;-59
2024/03/26 07:19:23;;;;;;;;;6.33;6.33;;;;;;;;5093381;27;46325;-59
2024/03/26 07:21:48;;;;;;;;;8.67;7.00;;;;;;;;5085491;27;45341;-59
2024/03/26 07:24:13;;;;;;;;;6.33;6.33;;;;;;;;5093037;27;45442;-59
2024/03/26 07:26:39;;;;;;;;;8.33;7.33;;;;;;;;5094172;27;45577;-59
2024/03/26 07:29:04;;;;;;;;;12.00;9.00;;;;;;;;5072773;27;47056;-59
2024/03/26 07:31:30;;;;;;;;;10.00;9.00;;;;;;;;5096714;27;45763;-59
2024/03/26 07:33:55;;;;;;;;;7.67;7.67;;;;;;;;5099127;27;45318;-59
2024/03/26 07:36:20;;;;;;;;;9.33;6.67;;;;;;;;5095040;27;45644;-59
2024/03/26 07:38:45;;;;;;;;;9.33;9.33;;;;;;;;5097078;27;45583;-58
2024/03/26 07:41:10;;;;;;;;;9.67;9.67;;;;;;;;5096683;27;45678;-55
2024/03/26 07:43:36;;;;;;;;;7.67;7.33;;;;;;;;5090000;27;45620;-54
2024/03/26 07:46:01;;;;;;;;;14.67;12.00;;;;;;;;5091738;27;45379;-55
2024/03/26 07:48:26;;;;;;;;;11.67;10.00;;;;;;;;5095364;27;45437;-57
2024/03/26 07:50:51;;;;;;;;;11.67;9.00;;;;;;;;5096460;27;45440;-57
2024/03/26 07:53:17;;;;;;;;;8.67;8.67;;;;;;;;5095580;27;45393;-57
2024/03/26 07:55:42;;;;;;;;;11.00;8.67;;;;;;;;5096657;27;45303;-57
2024/03/26 07:58:08;;;;;;;;;8.67;8.33;;;;;;;;5098551;27;45401;-57
2024/03/26 08:00:33;;;;;;;;;9.00;7.67;;;;;;;;5099438;27;45377;-57
2024/03/26 08:02:58;;;;;;;;;12.00;9.33;;;;;;;;5096261;27;45357;-57
2024/03/26 08:05:23;;;;;;;;;11.33;8.00;;;;;;;;5096802;27;45462;-57
2024/03/26 08:07:48;;;;;;;;;10.67;7.67;;;;;;;;5096499;27;45482;-57
2024/03/26 08:10:14;;;;;;;;;7.33;6.00;;;;;;;;5099052;27;45428;-57
2024/03/26 08:12:39;;;;;;;;;12.00;10.00;;;;;;;;5096691;27;45324;-57
2024/03/26 08:15:04;;;;;;;;;10.67;9.33;;;;;;;;5098797;27;45332;-57
2024/03/26 08:17:30;;;;;;;;;9.00;6.00;;;;;;;;5098899;27;45513;-57
2024/03/26 08:19:55;;;;;;;;;8.67;8.00;;;;;;;;5088805;27;45349;-57
2024/03/26 08:22:22;;;;;;;;;10.00;8.67;;;;;;;;5093208;27;45476;-57
2024/03/26 08:24:47;;;;;;;;;9.00;9.00;;;;;;;;5086403;27;45536;-57
2024/03/26 08:27:12;;;;;;;;;11.00;10.67;;;;;;;;5092907;27;46411;-56
2024/03/26 08:29:37;;;;;;;;;13.00;12.00;;;;;;;;5088095;27;45326;-57
2024/03/26 08:32:02;;;;;;;;;16.33;14.00;;;;;;;;5098401;27;45549;-57
2024/03/26 08:34:28;;;;;;;;;12.00;11.67;;;;;;;;5075750;27;45311;-57
2024/03/26 08:36:53;;;;;;;;;14.00;14.00;;;;;;;;5099139;27;45311;-57
2024/03/26 08:39:18;;;;;;;;;16.00;14.00;;;;;;;;5075773;27;45773;-57
2024/03/26 08:41:43;;;;;;;;;14.33;13.00;;;;;;;;5098493;27;45352;-58
2024/03/26 08:44:08;;;;;;;;;12.33;9.67;;;;;;;;5089454;27;45271;-58
2024/03/26 08:46:33;;;;;;;;;10.67;9.67;;;;;;;;5099168;27;45385;-58
2024/03/26 08:48:59;;;;;;;;;12.00;12.00;;;;;;;;5089883;27;45133;-57
2024/03/26 08:51:27;;;;;;;;;9.33;9.33;;;;;;;;5094184;27;45327;-58
2024/03/26 08:53:53;;;;;;;;;11.67;10.00;;;;;;;;5076418;27;45537;-57
2024/03/26 08:56:18;;;;;;;;;8.67;7.33;;;;;;;;5098629;27;45381;-57
2024/03/26 08:58:43;;;;;;;;;9.67;9.67;;;;;;;;5098282;27;45358;-58
2024/03/26 09:01:09;;;;;;;;;9.00;8.00;;;;;;;;5097750;27;45367;-58
2024/03/26 09:03:34;;;;;;;;;8.00;7.00;;;;;;;;5098340;27;45374;-57
2024/03/26 09:05:59;;;;;;;;;9.00;5.67;;;;;;;;5098161;27;46188;-57
2024/03/26 09:08:24;;;;;;;;;8.67;7.00;;;;;;;;5097980;27;45478;-57
2024/03/26 09:10:49;;;;;;;;;9.33;9.00;;;;;;;;5098699;27;45275;-57
2024/03/26 09:13:14;;;;;;;;;8.00;8.00;;;;;;;;5101279;27;45505;-57
2024/03/26 09:15:40;;;;;;;;;14.00;11.33;;;;;;;;5101792;27;45458;-57
2024/03/26 09:18:07;;;;;;;;;9.67;8.00;;;;;;;;5082814;27;45307;-57
2024/03/26 09:20:33;;;;;;;;;7.33;7.00;;;;;;;;5098899;27;45303;-57
2024/03/26 09:22:58;;;;;;;;;9.67;9.00;;;;;;;;5100353;27;45206;-58
2024/03/26 09:25:25;;;;;;;;;9.00;8.00;;;;;;;;5101561;27;46112;-57
2024/03/26 09:27:50;;;;;;;;;12.00;8.00;;;;;;;;5078871;27;45357;-57
2024/03/26 09:30:15;;;;;;;;;6.67;6.67;;;;;;;;5101415;27;45370;-58
2024/03/26 09:32:40;;;;;;;;;8.33;7.00;;;;;;;;5101572;27;45279;-58
2024/03/26 09:35:08;;;;;;;;;6.00;5.00;;;;;;;;5101141;27;46764;-57
2024/03/26 09:37:33;;;;;;;;;6.33;6.00;;;;;;;;5099840;27;45411;-58
2024/03/26 09:39:59;;;;;;;;;5.33;5.00;;;;;;;;5101944;27;45680;-57
2024/03/26 09:42:24;;;;;;;;;5.67;5.00;;;;;;;;5100979;27;45394;-58
2024/03/26 09:44:49;;;;;;;;;4.33;4.33;;;;;;;;5101611;27;45524;-58
2024/03/26 09:47:15;;;;;;;;;4.67;4.67;;;;;;;;5097298;27;45244;-58
2024/03/26 09:49:40;;;;;;;;;6.00;5.00;;;;;;;;5101701;27;45351;-57
2024/03/26 09:52:09;;;;;;;;;6.67;4.33;;;;;;;;5100930;27;45508;-57
2024/03/26 09:54:34;;;;;;;;;5.67;5.67;;;;;;;;5097560;27;45289;-57
2024/03/26 09:56:59;;;;;;;;;4.33;4.33;;;;;;;;5093691;27;45264;-57
2024/03/26 09:59:24;;;;;;;;;2.33;2.00;;;;;;;;5101279;27;45241;-57
2024/03/26 10:01:50;;;;;;;;;6.00;6.00;;;;;;;;5101427;27;45490;-57
2024/03/26 10:04:15;;;;;;;;;5.67;5.67;;;;;;;;5095099;27;46201;-57
2024/03/26 10:06:41;;;;;;;;;7.00;4.33;;;;;;;;5092811;27;45376;-57
2024/03/26 10:09:06;;;;;;;;;8.00;4.67;;;;;;;;5095035;27;45413;-57
2024/03/26 10:11:32;;;;;;;;;4.00;4.00;;;;;;;;5093730;27;45369;-57
2024/03/26 10:13:57;;;;;;;;;5.67;5.67;;;;;;;;5096076;27;45279;-57
2024/03/26 10:16:22;;;;;;;;;6.00;6.00;;;;;;;;5097891;27;45353;-57
2024/03/26 10:18:47;;;;;;;;;6.00;6.00;;;;;;;;5099431;27;45365;-57
2024/03/26 10:21:13;;;;;;;;;4.33;4.33;;;;;;;;5095591;27;45457;-57
2024/03/26 10:23:39;;;;;;;;;3.00;3.00;;;;;;;;5095882;27;46443;-57
2024/03/26 10:26:04;;;;;;;;;3.00;3.00;;;;;;;;5100360;27;45405;-57
2024/03/26 10:28:29;;;;;;;;;3.00;3.00;;;;;;;;5096923;27;45346;-57
2024/03/26 10:30:54;;;;;;;;;4.00;4.00;;;;;;;;5095875;27;46348;-57
2024/03/26 10:33:20;;;;;;;;;2.67;2.67;;;;;;;;5095015;27;46553;-57
2024/03/26 10:35:49;;;;;;;;;3.00;3.00;;;;;;;;5097831;27;45375;-57
2024/03/26 10:38:14;;;;;;;;;2.33;2.00;;;;;;;;5094239;27;45354;-58
2024/03/26 10:40:45;;;;;;;;;4.00;2.00;;;;;;;;5097280;27;45551;-57
2024/03/26 10:43:11;;;;;;;;;6.00;3.00;;;;;;;;5099638;27;45437;-58
2024/03/26 10:45:36;;;;;;;;;3.00;3.00;;;;;;;;5092332;27;45347;-58
2024/03/26 10:48:02;;;;;;;;;5.33;3.67;;;;;;;;5082090;27;45417;-57
2024/03/26 10:50:28;;;;;;;;;4.00;4.00;;;;;;;;5091735;27;45819;-57
2024/03/26 10:52:54;;;;;;;;;7.00;3.67;;;;;;;;5095221;27;45284;-57
2024/03/26 10:55:20;;;;;;;;;6.67;5.00;;;;;;;;5095454;27;45412;-57
2024/03/26 10:57:45;;;;;;;;;4.33;4.33;;;;;;;;5096131;27;45328;-57
2024/03/26 11:00:12;;;;;;;;;4.67;4.00;;;;;;;;5095379;27;45631;-57
2024/03/26 11:02:45;;;;;;;;;7.00;7.00;;;;;;;;5081409;27;48147;-57
2024/03/26 11:05:10;;;;;;;;;9.67;9.67;;;;;;;;5086949;27;45476;-56
2024/03/26 11:07:36;;;;;;;;;12.67;10.67;;;;;;;;5096485;27;45472;-57
2024/03/26 11:10:11;;;;;;;;;8.67;7.67;;;;;;;;5099610;27;45585;-57
2024/03/26 11:12:37;;;;;;;;;15.67;15.67;;;;;;;;5098938;27;45460;-57
2024/03/26 11:15:14;;;;;;;;;13.67;10.67;;;;;;;;5098785;27;45331;-57
2024/03/26 11:17:59;;;;;;;;;12.00;10.00;;;;;;;;5099299;27;45476;-57
2024/03/26 11:20:25;;;;;;;;;20.00;17.00;;;;;;;;5097675;27;45401;-56
2024/03/26 11:23:06;;;;;;;;;13.00;11.67;;;;;;;;5099688;27;45224;-56
2024/03/26 11:25:32;;;;;;;;;40.33;30.67;;;;;;;;5099169;27;45334;-57
2024/03/26 11:27:58;;;;;;;;;20.33;20.00;;;;;;;;5099670;27;45365;-57
2024/03/26 11:30:47;;;;;;;;;17.67;16.00;;;;;;;;5109784;27;45552;-57
2024/03/26 11:33:25;;;;;;;;;11.67;9.00;;;;;;;;5099186;27;46244;-57
2024/03/26 11:35:51;;;;;;;;;14.67;11.00;;;;;;;;5099441;27;45371;-57
2024/03/26 11:38:17;;;;;;;;;14.67;12.67;;;;;;;;5098908;27;45322;-57
2024/03/26 11:40:43;;;;;;;;;16.67;16.67;;;;;;;;5099721;27;45373;-57
2024/03/26 11:43:08;;;;;;;;;23.33;19.67;;;;;;;;5098712;27;45889;-57
2024/03/26 11:45:33;;;;;;;;;24.67;19.33;;;;;;;;5099812;27;45335;-57
2024/03/26 11:47:58;;;;;;;;;8.50;8.50;;;;;;;;5087858;27;45628;-56
2024/03/26 11:50:24;;;;;;;;;32.33;25.67;;;;;;;;5099683;27;45398;-56
2024/03/26 11:52:49;;;;;;;;;23.33;20.33;;;;;;;;5087985;27;45536;-57
2024/03/26 11:55:14;;;;;;;;;10.00;8.00;;;;;;;;5099300;27;45468;-57
2024/03/26 11:57:40;;;;;;;;;15.00;12.67;;;;;;;;5087725;27;45482;-57
2024/03/26 12:00:06;;;;;;;;;15.67;13.00;;;;;;;;5088411;27;45413;-57
2024/03/26 12:02:31;;;;;;;;;11.67;8.33;;;;;;;;5096356;27;46036;-57
2024/03/26 12:04:57;;;;;;;;;7.67;7.67;;;;;;;;5099489;27;45303;-57
2024/03/26 12:07:23;;;;;;;;;14.00;14.00;;;;;;;;5079572;27;45465;-56
2024/03/26 12:09:49;;;;;;;;;11.00;9.67;;;;;;;;5086107;27;45305;-57
2024/03/26 12:12:14;;;;;;;;;8.33;8.33;;;;;;;;5104154;27;45450;-58
2024/03/26 12:14:39;;;;;;;;;10.33;10.33;;;;;;;;5098000;27;45306;-57
2024/03/26 12:17:05;;;;;;;;;14.67;11.33;;;;;;;;5078872;27;45365;-57
2024/03/26 12:19:31;;;;;;;;;7.67;7.67;;;;;;;;5097742;27;45491;-57
2024/03/26 12:21:56;;;;;;;;;5.67;5.67;;;;;;;;5098002;27;45881;-57
2024/03/26 12:24:21;;;;;;;;;9.00;7.00;;;;;;;;5098870;27;45667;-57
2024/03/26 12:26:47;;;;;;;;;9.33;7.00;;;;;;;;5098688;27;45512;-57
2024/03/26 12:29:12;;;;;;;;;6.00;4.33;;;;;;;;5098269;27;45318;-57
2024/03/26 12:31:37;;;;;;;;;5.00;5.00;;;;;;;;5099205;27;45445;-57
2024/03/26 12:34:09;;;;;;;;;6.33;6.33;;;;;;;;5101961;27;45310;-57
2024/03/26 12:36:36;;;;;;;;;7.33;7.00;;;;;;;;5102022;27;45345;-56
2024/03/26 12:39:01;;;;;;;;;13.33;11.33;;;;;;;;5084401;27;45445;-57
2024/03/26 12:41:26;;;;;;;;;9.33;6.00;;;;;;;;5089174;27;46346;-57
2024/03/26 12:43:52;;;;;;;;;5.33;4.67;;;;;;;;5094664;27;45354;-57
2024/03/26 12:46:17;;;;;;;;;7.00;6.33;;;;;;;;5097748;27;45401;-57
2024/03/26 12:48:42;;;;;;;;;6.67;5.67;;;;;;;;5102721;27;45402;-57
2024/03/26 12:51:07;;;;;;;;;5.33;3.00;;;;;;;;5102022;27;45619;-57
2024/03/26 12:53:33;;;;;;;;;6.00;5.00;;;;;;;;5102536;27;45444;-57
2024/03/26 12:55:58;;;;;;;;;29.67;27.33;;;;;;;;5102346;27;45355;-57
2024/03/26 12:58:23;;;;;;;;;15.33;13.33;;;;;;;;5107890;27;45587;-57
2024/03/26 13:00:49;;;;;;;;;4.00;4.00;;;;;;;;5094638;27;45318;-57
2024/03/26 13:03:14;;;;;;;;;3.67;3.67;;;;;;;;5101949;27;45326;-58
2024/03/26 13:05:40;;;;;;;;;4.33;4.33;;;;;;;;5102502;27;45310;-57
2024/03/26 13:08:05;;;;;;;;;5.00;5.00;;;;;;;;5101992;27;45331;-57
2024/03/26 13:10:30;;;;;;;;;3.00;3.00;;;;;;;;5100189;27;46583;-57
2024/03/26 13:12:55;;;;;;;;;3.00;3.00;;;;;;;;5101000;27;45240;-57
2024/03/26 13:15:20;;;;;;;;;2.33;2.33;;;;;;;;5083350;27;45364;-57
2024/03/26 13:17:46;;;;;;;;;4.33;3.33;;;;;;;;5102183;27;45610;-57
2024/03/26 13:20:11;;;;;;;;;2.67;2.00;;;;;;;;5101716;27;45401;-56
2024/03/26 13:22:36;;;;;;;;;5.67;4.00;;;;;;;;5102035;27;45350;-57
2024/03/26 13:25:01;;;;;;;;;2.00;2.00;;;;;;;;5101480;27;45322;-57
2024/03/26 13:27:27;;;;;;;;;2.67;2.67;;;;;;;;5101600;27;45489;-57
2024/03/26 13:29:52;;;;;;;;;5.00;4.33;;;;;;;;5101739;27;45410;-56
2024/03/26 13:32:17;;;;;;;;;3.00;3.00;;;;;;;;5101360;27;45261;-57
2024/03/26 13:34:43;;;;;;;;;3.67;2.67;;;;;;;;5101868;27;45352;-58
2024/03/26 13:37:08;;;;;;;;;2.67;2.67;;;;;;;;5089226;27;45240;-57
2024/03/26 13:39:33;;;;;;;;;5.67;4.33;;;;;;;;5101821;27;45306;-57
2024/03/26 13:41:58;;;;;;;;;3.67;3.67;;;;;;;;5101489;27;45294;-57
2024/03/26 13:44:23;;;;;;;;;70.25;55.50;;;;;;;;5100220;27;45346;-56
2024/03/26 13:46:50;;;;;;;;;79.25;64.25;;;;;;;;5101668;27;45555;-57
2024/03/26 13:49:15;;;;;;;;;7.67;6.67;;;;;;;;5101154;27;45582;-57
2024/03/26 13:51:41;;;;;;;;;2.67;2.67;;;;;;;;5101486;27;45410;-56
2024/03/26 13:54:06;;;;;;;;;2.67;2.67;;;;;;;;5101461;27;45227;-57
2024/03/26 13:56:32;;;;;;;;;4.33;3.67;;;;;;;;5101401;27;45291;-56
2024/03/26 13:58:57;;;;;;;;;3.33;3.33;;;;;;;;5101385;27;46717;-56
2024/03/26 14:01:22;;;;;;;;;8.00;3.67;;;;;;;;5101012;27;45534;-57
2024/03/26 14:03:47;;;;;;;;;5.33;4.00;;;;;;;;5085891;27;45479;-56
2024/03/26 14:06:12;;;;;;;;;3.00;3.00;;;;;;;;5100826;27;45378;-56
2024/03/26 14:08:38;;;;;;;;;5.67;4.00;;;;;;;;5101588;27;45499;-56
2024/03/26 14:11:03;;;;;;;;;4.67;4.33;;;;;;;;5100257;27;45303;-56
2024/03/26 14:13:28;;;;;;;;;7.00;6.00;;;;;;;;5101291;27;45338;-57
2024/03/26 14:15:54;;;;;;;;;6.33;6.00;;;;;;;;5101017;27;45438;-57
2024/03/26 14:18:19;;;;;;;;;5.00;5.00;;;;;;;;5100195;27;46436;-56
2024/03/26 14:20:45;;;;;;;;;7.33;5.67;;;;;;;;5099693;27;45281;-56
2024/03/26 14:23:11;;;;;;;;;9.67;7.67;;;;;;;;5100723;27;45582;-57
2024/03/26 14:25:37;;;;;;;;;7.67;6.00;;;;;;;;5100593;27;45398;-56